Airfield :
LOGIN :

Register | Disclaimer

   EN    FR    IT 

 










Legend :    VFR   Marginal VFR   IFR   Intensive IFR   Very Intensive IFR
Visi :
Ceiling :
>= 8 km
>= 3000ft
5 to 8 km
1000 to 3000 ft
1500m to 5 km
500 to 1000 ft
800 to 1500m
200 to 500 ft
< 800m
< 200 ft
Symbols :   Thunderstorms  Fog  Heavy snow  Heavy precipitations  Wind > 20 kt
SIGMETs :     Misc.  Thunderstorms  Icing  Turbulence  Mountain Waves  Volcanic Ashes







- Airport Elevation : 117 ft
- IATA code : NWI
- Download approach charts


EGSH - Norwich

CURRENT METAR :
  • 231920Z 29006KT 9999 FEW031 08/07 Q1025 NOSIG

EXPIRED METARs :
  • 231850Z 29005KT 9999 FEW028 08/07 Q1025 NOSIG
  • 231820Z 31004KT 280V350 9999 FEW013 09/07 Q1024 RESHRA NOSIG
  • 231750Z 33006KT 290V010 9999 SHRA FEW009 SCT035 10/07 Q1023 BECMG NSW
  • 231720Z 34010KT 300V030 9999 -SHRA FEW009 SCT035 11/07 Q1022 TEMPO SHRA
  • 231650Z 34012KT 300V020 9999 VCSH FEW022 SCT032 12/07 Q1022 RESHRA TEMPO SHRA

TAF TAF EGSH
Valid from the 23 at 18:00 until the 24 at 00:00 UTC


231708Z 2318/2324 33012KT 9999 SCT035
PROB30
TEMPO 2318/2321 33015G25KT 9000 SHRA
ATIS : +44 1603 420 640
No reported NOTAMs for that airfield.



MET'MAP, your aeronautical weather chart ! - Copyright ORBIFLY December 2007 - Disclaimer

ORBIFLY MET'MAP TEAM :

Programming & Development : Alexandra Zaïnal
Concept & Development : Baudouin d'Aumeries
Co-Development & Prog : Marc-Olivier Méhu
Technical & hardware support : Manuel Goepfert

Contact : metmap@orbifly.com




SOURCES & CREDITS :

   NOAA